createdAt,value
2019-05-03T00:01:57.065Z,5.07
2019-05-03T00:04:26.987Z,4.17
2019-05-03T00:06:56.864Z,4.57
2019-05-03T00:09:26.731Z,4.93
2019-05-03T00:11:56.628Z,3.60
2019-05-03T00:14:26.823Z,4.20
2019-05-03T00:16:56.680Z,4.70
2019-05-03T00:19:26.591Z,5.13
2019-05-03T00:21:56.483Z,4.93
2019-05-03T00:24:26.405Z,5.00
2019-05-03T00:26:56.296Z,5.30
2019-05-03T00:29:26.520Z,4.63
2019-05-03T00:31:56.376Z,5.40
2019-05-03T00:34:32.377Z,5.80
2019-05-03T00:37:04.146Z,5.27
2019-05-03T00:39:38.388Z,5.20
2019-05-03T00:42:08.320Z,5.37
2019-05-03T00:44:38.219Z,5.33
2019-05-03T00:47:08.135Z,4.97
2019-05-03T00:49:38.056Z,4.73
2019-05-03T00:52:08.045Z,6.07
2019-05-03T00:54:37.943Z,5.43
2019-05-03T00:57:08.400Z,5.57
2019-05-03T00:59:38.243Z,5.80
2019-05-03T01:02:08.111Z,5.67
2019-05-03T01:04:38.014Z,6.10
2019-05-03T01:07:07.965Z,5.90
2019-05-03T01:09:37.922Z,6.57
2019-05-03T01:12:07.937Z,5.83
2019-05-03T01:14:39.573Z,5.87
2019-05-03T01:17:11.605Z,6.13
2019-05-03T01:19:42.622Z,5.87
2019-05-03T01:22:12.702Z,5.93
2019-05-03T01:24:42.882Z,6.80
2019-05-03T01:27:12.875Z,6.50
2019-05-03T01:29:42.764Z,5.70
2019-05-03T01:32:12.776Z,6.70
2019-05-03T01:34:42.698Z,7.37
2019-05-03T01:37:12.593Z,7.10
2019-05-03T01:39:42.517Z,5.83
2019-05-03T01:42:12.411Z,6.60
2019-05-03T01:44:42.767Z,6.47
2019-05-03T01:47:18.028Z,7.47
2019-05-03T01:50:02.867Z,6.23
2019-05-03T01:52:36.578Z,6.80
2019-05-03T01:55:07.079Z,7.33
2019-05-03T01:57:37.058Z,6.80
2019-05-03T02:00:12.459Z,7.73
2019-05-03T02:03:02.557Z,3.60
2019-05-03T02:05:52.479Z,2.30
2019-05-03T02:08:22.303Z,2.80
2019-05-03T02:10:52.232Z,2.80
2019-05-03T02:13:22.971Z,2.63
2019-05-03T02:15:52.973Z,3.10
2019-05-03T02:18:22.795Z,2.30
2019-05-03T02:20:52.644Z,2.20
2019-05-03T02:23:22.549Z,2.33
2019-05-03T02:25:58.291Z,2.30
2019-05-03T02:28:24.574Z,2.40
2019-05-03T02:30:54.522Z,2.67
2019-05-03T02:33:24.530Z,2.40
2019-05-03T02:35:54.696Z,2.47
2019-05-03T02:38:25.317Z,3.60
2019-05-03T02:40:55.130Z,2.33
2019-05-03T02:43:36.161Z,3.33
2019-05-03T02:46:25.787Z,3.27
2019-05-03T02:49:21.893Z,3.67
2019-05-03T02:51:52.382Z,2.60
2019-05-03T02:54:22.300Z,3.23
2019-05-03T02:56:55.751Z,3.27
2019-05-03T02:59:26.431Z,3.23
2019-05-03T03:01:56.525Z,3.53
2019-05-03T03:04:27.885Z,3.40
2019-05-03T03:06:59.092Z,3.10
2019-05-03T03:09:29.772Z,3.00
2019-05-03T03:12:00.511Z,4.00
2019-05-03T03:14:36.154Z,3.07
2019-05-03T03:17:07.780Z,2.93
2019-05-03T03:19:40.537Z,2.97
2019-05-03T03:22:11.705Z,4.00
2019-05-03T03:24:45.823Z,3.03
2019-05-03T03:27:20.178Z,4.13
2019-05-03T03:29:58.533Z,3.77
2019-05-03T03:32:38.501Z,3.23
2019-05-03T03:35:21.837Z,3.90
2019-05-03T03:37:51.379Z,3.10
2019-05-03T03:40:25.243Z,3.53
2019-05-03T03:42:55.973Z,3.40
2019-05-03T03:45:26.370Z,3.13
2019-05-03T03:47:56.732Z,3.20
2019-05-03T03:50:28.480Z,3.60
2019-05-03T03:52:59.849Z,4.10
2019-05-03T03:55:33.007Z,2.77
2019-05-03T03:58:06.459Z,3.63
2019-05-03T04:00:36.225Z,2.93
2019-05-03T04:03:06.482Z,3.30
2019-05-03T04:05:36.412Z,3.50
2019-05-03T04:08:06.550Z,3.87
2019-05-03T04:10:36.844Z,3.43
2019-05-03T04:13:08.368Z,2.67
2019-05-03T04:15:50.046Z,2.67
2019-05-03T04:18:26.970Z,3.30
2019-05-03T04:20:57.447Z,3.93
2019-05-03T04:23:27.416Z,3.13
2019-05-03T04:25:57.333Z,2.83
2019-05-03T04:28:27.923Z,3.87
2019-05-03T04:30:57.778Z,3.30
2019-05-03T04:33:27.701Z,2.83
2019-05-03T04:35:57.542Z,3.23
2019-05-03T04:38:27.391Z,3.87
2019-05-03T04:40:57.349Z,4.10
2019-05-03T04:43:27.296Z,2.87
2019-05-03T04:46:07.383Z,3.53
2019-05-03T04:48:37.343Z,4.40
2019-05-03T04:51:07.736Z,3.30
2019-05-03T04:53:40.397Z,3.57
2019-05-03T04:56:10.216Z,3.23
2019-05-03T04:58:40.440Z,3.60
2019-05-03T05:01:10.275Z,2.77
2019-05-03T05:03:40.398Z,3.27
2019-05-03T05:06:10.283Z,2.60
2019-05-03T05:08:40.470Z,3.00
2019-05-03T05:11:10.967Z,3.63
2019-05-03T05:13:41.581Z,3.03
2019-05-03T05:16:11.820Z,3.33
2019-05-03T05:18:49.821Z,3.77
2019-05-03T05:21:26.284Z,3.90
2019-05-03T05:24:01.255Z,3.90
2019-05-03T05:26:38.653Z,4.30
2019-05-03T05:29:11.486Z,3.10
2019-05-03T05:31:41.348Z,3.13
2019-05-03T05:34:11.251Z,3.60
2019-05-03T05:36:41.096Z,3.90
2019-05-03T05:39:11.092Z,3.50
2019-05-03T05:41:40.951Z,4.47
2019-05-03T05:44:10.825Z,3.30
2019-05-03T05:46:47.866Z,3.77
2019-05-03T05:49:37.017Z,3.07
2019-05-03T05:52:07.149Z,3.17
2019-05-03T05:54:38.872Z,2.43
2019-05-03T05:57:26.806Z,2.97
2019-05-03T05:59:59.236Z,3.87
2019-05-03T06:02:29.091Z,3.40
2019-05-03T06:04:59.252Z,3.93
2019-05-03T06:07:44.329Z,2.30
2019-05-03T06:10:24.837Z,3.13
2019-05-03T06:13:10.159Z,3.00
2019-05-03T06:16:02.108Z,4.00
2019-05-03T06:18:39.524Z,3.27
2019-05-03T06:21:30.077Z,3.10
2019-05-03T06:24:07.856Z,4.63
2019-05-03T06:26:59.549Z,3.20
2019-05-03T06:29:29.630Z,2.87
2019-05-03T06:32:27.812Z,3.07
2019-05-03T06:34:57.656Z,3.00
2019-05-03T06:37:30.040Z,2.47
2019-05-03T06:39:59.851Z,2.43
2019-05-03T06:42:29.694Z,2.83
2019-05-03T06:45:07.465Z,2.80
2019-05-03T06:47:31.158Z,2.83
2019-05-03T06:50:00.995Z,2.70
2019-05-03T06:52:30.832Z,3.47
2019-05-03T06:55:08.549Z,3.90
2019-05-03T06:57:32.802Z,3.47
2019-05-03T07:00:20.562Z,3.47
2019-05-03T07:02:56.633Z,3.33
2019-05-03T07:05:51.578Z,2.60
2019-05-03T07:08:39.420Z,2.40
2019-05-03T07:11:09.517Z,2.87
2019-05-03T07:13:39.466Z,3.07
2019-05-03T07:16:09.326Z,3.30
2019-05-03T07:18:39.160Z,3.83
2019-05-03T07:21:09.707Z,3.73
2019-05-03T07:23:39.845Z,2.50
2019-05-03T07:26:10.057Z,3.63
2019-05-03T07:28:46.860Z,2.70
2019-05-03T07:31:12.115Z,2.73
2019-05-03T07:33:41.950Z,2.80
2019-05-03T07:36:11.816Z,3.13
2019-05-03T07:38:41.640Z,3.23
2019-05-03T07:41:11.516Z,2.53
2019-05-03T07:43:41.416Z,2.73
2019-05-03T07:46:11.282Z,3.30
2019-05-03T07:48:41.113Z,2.77
2019-05-03T07:51:10.978Z,2.47
2019-05-03T07:53:41.160Z,2.43
2019-05-03T07:56:15.903Z,2.97
2019-05-03T07:58:59.470Z,3.03
2019-05-03T08:01:27.584Z,3.23
2019-05-03T08:03:57.637Z,2.50
2019-05-03T08:06:27.476Z,2.43
2019-05-03T08:08:57.390Z,2.57
2019-05-03T08:11:27.269Z,2.27
2019-05-03T08:13:57.423Z,2.70
2019-05-03T08:16:27.292Z,2.83
2019-05-03T08:18:57.131Z,1.90
2019-05-03T08:21:27.474Z,2.93
2019-05-03T08:23:57.359Z,2.30
2019-05-03T08:26:27.227Z,2.30
2019-05-03T08:28:57.187Z,2.20
2019-05-03T08:31:52.095Z,3.13
2019-05-03T08:34:28.221Z,2.70
2019-05-03T08:37:05.938Z,2.77
2019-05-03T08:39:35.963Z,2.17
2019-05-03T08:42:09.973Z,2.30
2019-05-03T08:44:39.870Z,2.60
2019-05-03T08:47:09.705Z,3.27
2019-05-03T08:49:39.581Z,3.03
2019-05-03T08:52:09.694Z,3.20
2019-05-03T08:54:39.577Z,2.60
2019-05-03T08:57:09.524Z,2.47
2019-05-03T08:59:39.772Z,2.90
2019-05-03T09:02:17.852Z,3.30
2019-05-03T09:04:43.182Z,2.43
2019-05-03T09:07:14.844Z,2.50
2019-05-03T09:09:58.631Z,2.20
2019-05-03T09:12:47.410Z,3.00
2019-05-03T09:15:17.287Z,2.47
2019-05-03T09:17:47.149Z,2.43
2019-05-03T09:20:17.056Z,2.60
2019-05-03T09:22:46.941Z,2.63
2019-05-03T09:25:16.805Z,2.33
2019-05-03T09:27:47.113Z,2.83
2019-05-03T09:30:17.310Z,1.93
2019-05-03T09:32:47.321Z,2.77
2019-05-03T09:35:29.733Z,2.40
2019-05-03T09:37:48.859Z,2.20
2019-05-03T09:40:18.848Z,2.37
2019-05-03T09:42:48.727Z,1.90
2019-05-03T09:45:19.009Z,2.30
2019-05-03T09:47:48.895Z,2.23
2019-05-03T09:50:19.055Z,2.20
2019-05-03T09:52:48.884Z,2.53
2019-05-03T09:55:27.385Z,3.27
2019-05-03T09:57:57.221Z,1.70
2019-05-03T10:00:27.423Z,2.03
2019-05-03T10:02:57.275Z,2.17
2019-05-03T10:05:27.238Z,1.93
2019-05-03T10:07:57.103Z,1.33
2019-05-03T10:10:27.047Z,2.10
2019-05-03T10:12:57.173Z,1.90
2019-05-03T10:15:40.383Z,2.07
2019-05-03T10:18:13.338Z,1.50
2019-05-03T10:20:44.644Z,2.33
2019-05-03T10:23:44.915Z,2.23
2019-05-03T10:26:15.011Z,1.77
2019-05-03T10:28:45.426Z,1.23
2019-05-03T10:31:15.348Z,1.90
2019-05-03T10:33:49.487Z,2.20
2019-05-03T10:36:20.124Z,2.30
2019-05-03T10:38:50.086Z,1.60
2019-05-03T10:41:20.006Z,1.87
2019-05-03T10:43:49.873Z,2.00
2019-05-03T10:46:19.726Z,2.03
2019-05-03T10:48:49.923Z,1.10
2019-05-03T10:51:19.943Z,1.80
2019-05-03T10:53:55.220Z,1.70
2019-05-03T10:56:35.788Z,1.93
2019-05-03T10:59:07.332Z,1.73
2019-05-03T11:01:45.395Z,2.00
2019-05-03T11:04:15.292Z,2.03
2019-05-03T11:06:45.723Z,2.13
2019-05-03T11:09:16.210Z,2.37
2019-05-03T11:11:46.109Z,2.00
2019-05-03T11:14:15.950Z,2.63
2019-05-03T11:16:46.254Z,2.53
2019-05-03T11:19:16.204Z,1.87
2019-05-03T11:21:46.090Z,2.57
2019-05-03T11:24:16.050Z,2.20
2019-05-03T11:26:47.817Z,2.20
2019-05-03T11:29:18.280Z,2.23
2019-05-03T11:32:11.511Z,2.10
2019-05-03T11:34:47.679Z,2.67
2019-05-03T11:37:39.965Z,1.80
2019-05-03T11:40:10.984Z,2.50
2019-05-03T11:42:40.869Z,2.60
2019-05-03T11:45:11.489Z,2.57
2019-05-03T11:47:41.639Z,3.03
2019-05-03T11:50:12.017Z,2.40
2019-05-03T11:52:41.933Z,2.00
2019-05-03T11:55:12.508Z,2.40
2019-05-03T11:57:44.833Z,2.10
2019-05-03T12:00:18.109Z,2.00
2019-05-03T12:03:18.942Z,2.50
2019-05-03T12:05:51.441Z,2.27
2019-05-03T12:08:21.613Z,3.10
2019-05-03T12:10:57.871Z,2.33
2019-05-03T12:13:30.996Z,2.23
2019-05-03T12:16:12.877Z,2.20
2019-05-03T12:18:47.817Z,2.20
2019-05-03T12:21:08.612Z,3.20
2019-05-03T12:23:38.280Z,2.60
2019-05-03T12:26:12.980Z,2.97
2019-05-03T12:28:40.393Z,1.80
2019-05-03T12:31:25.992Z,1.93
2019-05-03T12:33:42.143Z,2.13
2019-05-03T12:36:11.972Z,2.80
2019-05-03T12:38:41.810Z,2.30
2019-05-03T12:41:11.704Z,2.03
2019-05-03T12:43:41.566Z,2.23
2019-05-03T12:46:11.454Z,2.70
2019-05-03T12:48:41.330Z,2.17
2019-05-03T12:51:11.651Z,2.10
2019-05-03T12:53:41.779Z,2.83
2019-05-03T12:56:13.949Z,2.57
2019-05-03T12:58:49.652Z,3.00
2019-05-03T13:01:45.401Z,2.37
2019-05-03T13:04:19.339Z,2.30
2019-05-03T13:06:54.991Z,3.00
2019-05-03T13:09:25.264Z,2.60
2019-05-03T13:11:59.092Z,2.30
2019-05-03T13:14:28.643Z,2.20
2019-05-03T13:16:58.547Z,2.87
2019-05-03T13:19:28.418Z,3.30
2019-05-03T13:21:58.235Z,2.60
2019-05-03T13:24:28.062Z,2.20
2019-05-03T13:26:58.011Z,2.13
2019-05-03T13:29:27.839Z,2.90
2019-05-03T13:32:01.813Z,2.60
2019-05-03T13:34:29.892Z,2.23
2019-05-03T13:36:59.781Z,2.43
2019-05-03T13:39:29.956Z,1.97
2019-05-03T13:42:00.097Z,2.13
2019-05-03T13:44:29.980Z,3.33
2019-05-03T13:46:59.872Z,2.37
2019-05-03T13:49:29.716Z,2.40
2019-05-03T13:51:59.956Z,2.50
2019-05-03T13:54:29.817Z,1.90
2019-05-03T13:56:59.690Z,2.67
2019-05-03T13:59:29.586Z,2.73
2019-05-03T14:02:12.369Z,2.60
2019-05-03T14:04:35.756Z,2.30
2019-05-03T14:07:04.669Z,2.30
2019-05-03T14:09:35.019Z,2.23
2019-05-03T14:12:07.396Z,2.93
2019-05-03T14:14:56.122Z,2.10
2019-05-03T14:17:29.200Z,2.37
2019-05-03T14:20:20.958Z,2.17
2019-05-03T14:22:51.978Z,2.00
2019-05-03T14:25:21.825Z,1.80
2019-05-03T14:27:51.932Z,2.03
2019-05-03T14:30:21.914Z,1.50
2019-05-03T14:32:51.858Z,1.70
2019-05-03T14:35:21.690Z,2.40
2019-05-03T14:37:51.530Z,2.10
2019-05-03T14:40:21.553Z,1.73
2019-05-03T14:42:51.699Z,2.50
2019-05-03T14:45:21.579Z,1.70
2019-05-03T14:47:51.443Z,2.00
2019-05-03T14:50:21.276Z,2.30
2019-05-03T14:52:51.181Z,2.20
2019-05-03T14:55:38.635Z,2.50
2019-05-03T14:58:35.304Z,1.80
2019-05-03T15:01:11.428Z,1.97
2019-05-03T15:03:41.438Z,2.30
2019-05-03T15:06:11.451Z,2.10
2019-05-03T15:08:41.715Z,1.70
2019-05-03T15:11:11.703Z,2.70
2019-05-03T15:13:41.961Z,2.17
2019-05-03T15:16:11.893Z,2.50
2019-05-03T15:18:42.069Z,1.80
2019-05-03T15:21:11.956Z,2.57
2019-05-03T15:23:41.882Z,2.13
2019-05-03T15:26:11.913Z,2.53
2019-05-03T15:28:41.754Z,2.50
2019-05-03T15:31:12.049Z,2.00
2019-05-03T15:33:41.926Z,2.70
2019-05-03T15:36:12.186Z,2.57
2019-05-03T15:38:44.512Z,2.73
2019-05-03T15:41:14.668Z,3.60
2019-05-03T15:43:56.619Z,2.00
2019-05-03T15:46:36.447Z,2.00
2019-05-03T15:49:06.638Z,3.73
2019-05-03T15:51:36.589Z,2.77
2019-05-03T15:54:06.560Z,2.60
2019-05-03T15:56:37.081Z,2.23
2019-05-03T15:59:07.002Z,2.77
2019-05-03T16:01:36.972Z,2.60
2019-05-03T16:04:07.107Z,2.83
2019-05-03T16:06:37.294Z,3.80
2019-05-03T16:09:08.187Z,2.40
2019-05-03T16:11:38.081Z,3.40
2019-05-03T16:14:07.964Z,3.83
2019-05-03T16:16:37.865Z,3.40
2019-05-03T16:19:07.741Z,2.93
2019-05-03T16:21:37.641Z,2.63
2019-05-03T16:24:07.533Z,2.60
2019-05-03T16:26:56.610Z,2.40
2019-05-03T16:29:26.782Z,3.37
2019-05-03T16:31:56.673Z,2.60
2019-05-03T16:34:26.586Z,2.57
2019-05-03T16:36:56.497Z,3.00
2019-05-03T16:39:26.897Z,3.20
2019-05-03T16:41:57.355Z,2.43
2019-05-03T16:44:27.263Z,2.50
2019-05-03T16:46:57.186Z,3.63
2019-05-03T16:49:27.405Z,2.87
2019-05-03T16:51:57.608Z,2.73
2019-05-03T16:54:28.031Z,2.97
2019-05-03T16:56:57.877Z,3.07
2019-05-03T16:59:27.755Z,2.30
2019-05-03T17:01:58.070Z,2.80
2019-05-03T17:04:34.539Z,2.57
2019-05-03T17:07:29.671Z,2.70
2019-05-03T17:10:21.616Z,3.50
2019-05-03T17:12:51.481Z,2.90
2019-05-03T17:15:21.401Z,2.97
2019-05-03T17:17:51.605Z,2.53
2019-05-03T17:20:21.557Z,3.63
2019-05-03T17:22:51.471Z,3.37
2019-05-03T17:25:21.402Z,3.07
2019-05-03T17:27:51.277Z,2.60
2019-05-03T17:30:21.298Z,3.03
2019-05-03T17:32:51.785Z,2.27
2019-05-03T17:35:21.680Z,2.50
2019-05-03T17:37:51.833Z,2.53
2019-05-03T17:40:37.024Z,2.33
2019-05-03T17:43:16.161Z,2.70
2019-05-03T17:45:49.126Z,3.20
2019-05-03T17:48:19.074Z,2.37
2019-05-03T17:50:49.675Z,2.90
2019-05-03T17:53:47.797Z,3.33
2019-05-03T17:56:24.319Z,2.13
2019-05-03T17:58:57.562Z,2.20
2019-05-03T18:01:58.576Z,2.90
2019-05-03T18:04:47.759Z,2.70
2019-05-03T18:07:40.997Z,3.07
2019-05-03T18:10:11.768Z,2.70
2019-05-03T18:12:41.667Z,2.87
2019-05-03T18:15:11.673Z,2.83
2019-05-03T18:17:41.553Z,3.37
2019-05-03T18:20:11.862Z,2.30
2019-05-03T18:22:41.999Z,3.17
2019-05-03T18:25:11.984Z,3.20
2019-05-03T18:27:41.899Z,2.37
2019-05-03T18:30:12.396Z,2.40
2019-05-03T18:32:42.328Z,2.70
2019-05-03T18:35:12.222Z,2.73
2019-05-03T18:37:42.405Z,2.97
2019-05-03T18:40:12.743Z,2.73
2019-05-03T18:42:47.403Z,2.50
2019-05-03T18:45:23.227Z,3.37
2019-05-03T18:47:54.489Z,2.57
2019-05-03T18:50:24.824Z,1.80
2019-05-03T18:52:55.408Z,2.80
2019-05-03T18:55:25.839Z,2.20
2019-05-03T18:57:55.715Z,3.00
2019-05-03T19:00:27.523Z,3.33
2019-05-03T19:02:57.706Z,2.93
2019-05-03T19:05:29.676Z,1.90
2019-05-03T19:08:11.293Z,2.50
2019-05-03T19:10:49.036Z,2.10
2019-05-03T19:13:38.205Z,2.00
2019-05-03T19:16:22.024Z,2.83
2019-05-03T19:18:51.918Z,3.37
2019-05-03T19:21:21.885Z,2.30
2019-05-03T19:23:51.815Z,2.67
2019-05-03T19:26:22.023Z,2.57
2019-05-03T19:28:51.989Z,3.13
2019-05-03T19:31:22.392Z,2.70
2019-05-03T19:33:52.267Z,2.50
2019-05-03T19:36:22.552Z,2.33
2019-05-03T19:38:54.518Z,2.97
2019-05-03T19:41:25.131Z,2.93
2019-05-03T19:43:55.215Z,3.57
2019-05-03T19:46:25.506Z,2.60
2019-05-03T19:48:55.387Z,3.70
2019-05-03T19:51:25.371Z,2.97
2019-05-03T19:53:55.844Z,3.00
2019-05-03T19:56:25.898Z,3.33
2019-05-03T19:59:00.513Z,3.20
2019-05-03T20:01:43.412Z,2.40
2019-05-03T20:04:41.282Z,2.47
2019-05-03T20:07:26.926Z,3.13
2019-05-03T20:09:56.741Z,2.90
2019-05-03T20:12:26.996Z,2.97
2019-05-03T20:14:56.846Z,3.20
2019-05-03T20:17:26.694Z,2.63
2019-05-03T20:19:56.575Z,2.73
2019-05-03T20:22:26.499Z,2.30
2019-05-03T20:24:56.399Z,2.90
2019-05-03T20:27:26.276Z,3.23
2019-05-03T20:29:56.218Z,2.97
2019-05-03T20:32:26.425Z,2.73
2019-05-03T20:34:56.300Z,3.77
2019-05-03T20:37:26.480Z,2.70
2019-05-03T20:39:56.625Z,3.57
2019-05-03T20:43:04.870Z,2.83
2019-05-03T20:45:54.257Z,2.80
2019-05-03T20:48:25.003Z,2.70
2019-05-03T20:50:55.161Z,3.00
2019-05-03T20:53:25.205Z,2.87
2019-05-03T20:55:55.737Z,2.90
2019-05-03T20:58:25.579Z,2.93
2019-05-03T21:00:55.781Z,3.00
2019-05-03T21:03:26.020Z,3.60
2019-05-03T21:05:55.840Z,3.77
2019-05-03T21:08:25.703Z,3.43
2019-05-03T21:10:55.835Z,3.60
2019-05-03T21:13:38.635Z,3.07
2019-05-03T21:16:26.287Z,4.20
2019-05-03T21:19:05.242Z,3.30
2019-05-03T21:21:41.401Z,3.50
2019-05-03T21:24:39.593Z,3.93
2019-05-03T21:27:09.462Z,3.40
2019-05-03T21:30:04.736Z,3.50
2019-05-03T21:32:35.143Z,3.87
2019-05-03T21:35:06.065Z,3.10
2019-05-03T21:37:36.258Z,3.20
2019-05-03T21:40:07.220Z,3.43
2019-05-03T21:42:37.065Z,3.60
2019-05-03T21:45:07.898Z,3.37
2019-05-03T21:47:55.591Z,4.00
2019-05-03T21:50:25.614Z,3.50
2019-05-03T21:52:58.230Z,2.77
2019-05-03T21:55:28.331Z,3.50
2019-05-03T21:57:58.200Z,3.47
2019-05-03T22:00:36.416Z,4.10
2019-05-03T22:03:06.501Z,3.53
2019-05-03T22:05:36.362Z,3.30
2019-05-03T22:08:06.319Z,3.20
2019-05-03T22:10:36.227Z,3.23
2019-05-03T22:13:06.683Z,4.10
2019-05-03T22:15:53.696Z,3.17
2019-05-03T22:18:25.206Z,3.60
2019-05-03T22:21:05.432Z,3.47
2019-05-03T22:24:04.460Z,3.73
2019-05-03T22:26:52.803Z,3.10
2019-05-03T22:29:22.734Z,4.50
2019-05-03T22:31:54.693Z,4.43
2019-05-03T22:34:25.788Z,3.80
2019-05-03T22:36:55.826Z,4.23
2019-05-03T22:39:25.694Z,3.77
2019-05-03T22:41:55.638Z,3.63
2019-05-03T22:44:25.726Z,4.20
2019-05-03T22:46:55.538Z,4.20
2019-05-03T22:49:26.054Z,4.33
2019-05-03T22:51:56.120Z,4.83
2019-05-03T22:54:25.935Z,4.00
2019-05-03T22:56:55.802Z,4.47
2019-05-03T22:59:25.626Z,4.03
2019-05-03T23:01:55.704Z,3.37
2019-05-03T23:04:25.610Z,4.03
2019-05-03T23:06:55.911Z,4.40
2019-05-03T23:09:26.125Z,3.70
2019-05-03T23:11:56.078Z,4.03
2019-05-03T23:14:26.068Z,3.70
2019-05-03T23:16:55.934Z,4.47
2019-05-03T23:19:26.434Z,4.37
2019-05-03T23:22:05.225Z,4.00
2019-05-03T23:24:35.313Z,3.60
2019-05-03T23:27:05.310Z,4.60
2019-05-03T23:29:35.362Z,5.40
2019-05-03T23:32:05.795Z,3.73
2019-05-03T23:34:35.629Z,3.20
2019-05-03T23:37:05.823Z,3.47
2019-05-03T23:39:36.056Z,3.93
2019-05-03T23:42:06.606Z,3.60
2019-05-03T23:44:36.456Z,3.77
2019-05-03T23:47:31.557Z,3.80
2019-05-03T23:50:01.852Z,3.43
2019-05-03T23:52:38.534Z,3.63
2019-05-03T23:55:18.111Z,4.13
2019-05-03T23:57:47.943Z,4.10
